sensor_id;sensor_type;location;lat;lon;timestamp;pressure;altitude;pressure_sealevel;temperature;humidity
37852;BME280;23691;52.486;4.650;2023-10-08T00:45:05;102260.34;;;21.09;70.76
37852;BME280;23691;52.486;4.650;2023-10-08T00:47:32;102261.59;;;21.06;70.83
37852;BME280;23691;52.486;4.650;2023-10-08T00:50:05;102263.50;;;21.06;70.93
37852;BME280;23691;52.486;4.650;2023-10-08T02:27:03;102379.56;;;20.70;71.71
37852;BME280;23691;52.486;4.650;2023-10-08T02:47:38;102388.28;;;20.29;70.75
37852;BME280;23691;52.486;4.650;2023-10-08T06:04:09;102563.66;;;18.08;68.25
37852;BME280;23691;52.486;4.650;2023-10-08T18:15:28;102282.59;;;19.98;64.04
37852;BME280;23691;52.486;4.650;2023-10-08T18:46:52;102237.66;;;19.59;64.59
37852;BME280;23691;52.486;4.650;2023-10-08T19:02:13;102248.72;;;19.43;65.04
37852;BME280;23691;52.486;4.650;2023-10-08T19:38:16;102216.63;;;19.17;66.12
37852;BME280;23691;52.486;4.650;2023-10-08T19:56:13;102215.97;;;19.00;67.00
37852;BME280;23691;52.486;4.650;2023-10-08T19:58:40;102213.84;;;18.95;66.94
37852;BME280;23691;52.486;4.650;2023-10-08T20:01:08;102211.13;;;18.95;67.08
37852;BME280;23691;52.486;4.650;2023-10-08T20:03:33;102212.97;;;18.95;66.90
37852;BME280;23691;52.486;4.650;2023-10-08T20:06:00;102208.97;;;18.91;67.21
37852;BME280;23691;52.486;4.650;2023-10-08T20:08:26;102203.72;;;18.89;66.95
37852;BME280;23691;52.486;4.650;2023-10-08T20:10:52;102197.84;;;18.85;67.11
37852;BME280;23691;52.486;4.650;2023-10-08T20:13:18;102193.66;;;18.83;67.13
37852;BME280;23691;52.486;4.650;2023-10-08T20:15:46;102190.44;;;18.79;67.21
37852;BME280;23691;52.486;4.650;2023-10-08T20:18:11;102173.53;;;18.77;67.21
37852;BME280;23691;52.486;4.650;2023-10-08T20:20:37;102170.13;;;18.75;67.28
37852;BME280;23691;52.486;4.650;2023-10-08T20:23:06;102181.16;;;18.74;67.41
37852;BME280;23691;52.486;4.650;2023-10-08T20:25:40;102192.84;;;18.74;67.36
37852;BME280;23691;52.486;4.650;2023-10-08T20:28:10;102189.47;;;18.72;67.39
37852;BME280;23691;52.486;4.650;2023-10-08T20:30:41;102190.91;;;18.68;67.64
37852;BME280;23691;52.486;4.650;2023-10-08T20:33:07;102186.47;;;18.67;67.70
37852;BME280;23691;52.486;4.650;2023-10-08T20:35:38;102172.28;;;18.65;67.79
37852;BME280;23691;52.486;4.650;2023-10-08T20:38:04;102159.94;;;18.62;68.05
37852;BME280;23691;52.486;4.650;2023-10-08T20:40:33;102163.69;;;18.61;68.14
37852;BME280;23691;52.486;4.650;2023-10-08T20:42:59;102150.31;;;18.60;67.88
37852;BME280;23691;52.486;4.650;2023-10-08T20:45:29;102154.22;;;18.57;68.30
37852;BME280;23691;52.486;4.650;2023-10-08T20:47:56;102150.03;;;18.55;68.24
37852;BME280;23691;52.486;4.650;2023-10-08T20:50:22;102143.78;;;18.54;68.42
37852;BME280;23691;52.486;4.650;2023-10-08T20:52:51;102140.41;;;18.52;68.24
37852;BME280;23691;52.486;4.650;2023-10-08T20:55:24;102148.69;;;18.51;68.33
37852;BME280;23691;52.486;4.650;2023-10-08T20:57:54;102149.75;;;18.50;68.42
37852;BME280;23691;52.486;4.650;2023-10-08T21:00:20;102155.16;;;18.50;68.51
37852;BME280;23691;52.486;4.650;2023-10-08T21:02:55;102156.00;;;18.50;68.70
37852;BME280;23691;52.486;4.650;2023-10-08T21:05:21;102149.75;;;18.50;68.81
37852;BME280;23691;52.486;4.650;2023-10-08T21:07:47;102154.13;;;18.51;68.74
37852;BME280;23691;52.486;4.650;2023-10-08T21:10:13;102152.28;;;18.51;69.00
37852;BME280;23691;52.486;4.650;2023-10-08T21:12:42;102141.44;;;18.51;68.99
37852;BME280;23691;52.486;4.650;2023-10-08T21:15:08;102139.56;;;18.52;69.02
37852;BME280;23691;52.486;4.650;2023-10-08T21:17:35;102130.38;;;18.53;69.20
37852;BME280;23691;52.486;4.650;2023-10-08T21:20:01;102126.84;;;18.52;69.40
37852;BME280;23691;52.486;4.650;2023-10-08T21:22:27;102122.09;;;18.54;69.57
37852;BME280;23691;52.486;4.650;2023-10-08T21:24:53;102132.75;;;18.56;69.48
37852;BME280;23691;52.486;4.650;2023-10-08T21:27:19;102136.97;;;18.58;69.50
37852;BME280;23691;52.486;4.650;2023-10-08T21:29:44;102147.81;;;18.58;69.65
37852;BME280;23691;52.486;4.650;2023-10-08T21:32:10;102137.97;;;18.57;69.77
37852;BME280;23691;52.486;4.650;2023-10-08T21:34:35;102137.78;;;18.59;69.82
37852;BME280;23691;52.486;4.650;2023-10-08T21:37:01;102133.03;;;18.61;69.68
37852;BME280;23691;52.486;4.650;2023-10-08T21:39:30;102121.16;;;18.62;70.04
37852;BME280;23691;52.486;4.650;2023-10-08T21:41:55;102113.03;;;18.62;70.01
37852;BME280;23691;52.486;4.650;2023-10-08T21:44:21;102105.72;;;18.62;70.18
37852;BME280;23691;52.486;4.650;2023-10-08T21:46:46;102116.38;;;18.64;70.26
37852;BME280;23691;52.486;4.650;2023-10-08T21:49:12;102107.22;;;18.65;70.33
37852;BME280;23691;52.486;4.650;2023-10-08T21:51:37;102103.66;;;18.64;70.11
37852;BME280;23691;52.486;4.650;2023-10-08T21:54:02;102106.22;;;18.66;70.55
37852;BME280;23691;52.486;4.650;2023-10-08T21:56:28;102105.16;;;18.67;70.53
37852;BME280;23691;52.486;4.650;2023-10-08T21:58:53;102104.34;;;18.66;70.60
37852;BME280;23691;52.486;4.650;2023-10-08T22:01:19;102101.44;;;18.68;70.65
37852;BME280;23691;52.486;4.650;2023-10-08T22:03:49;102105.00;;;18.69;70.98
37852;BME280;23691;52.486;4.650;2023-10-08T22:06:14;102103.13;;;18.69;70.61
37852;BME280;23691;52.486;4.650;2023-10-08T22:08:41;102096.66;;;18.70;70.80
37852;BME280;23691;52.486;4.650;2023-10-08T22:11:11;102090.22;;;18.71;71.21
37852;BME280;23691;52.486;4.650;2023-10-08T22:13:41;102086.47;;;18.72;71.05
37852;BME280;23691;52.486;4.650;2023-10-08T22:16:07;102088.78;;;18.75;71.03
37852;BME280;23691;52.486;4.650;2023-10-08T22:18:47;102089.47;;;18.77;71.40
37852;BME280;23691;52.486;4.650;2023-10-08T22:21:21;102089.97;;;18.81;71.55
37852;BME280;23691;52.486;4.650;2023-10-08T22:23:49;102088.53;;;18.85;71.66
37852;BME280;23691;52.486;4.650;2023-10-08T22:26:17;102072.75;;;18.88;71.82
37852;BME280;23691;52.486;4.650;2023-10-08T22:28:44;102085.91;;;18.92;72.17
37852;BME280;23691;52.486;4.650;2023-10-08T22:31:09;102083.47;;;18.97;72.36
37852;BME280;23691;52.486;4.650;2023-10-08T22:33:37;102067.69;;;19.00;72.30
37852;BME280;23691;52.486;4.650;2023-10-08T22:36:06;102074.59;;;19.03;72.33
37852;BME280;23691;52.486;4.650;2023-10-08T22:38:43;102069.63;;;19.06;72.47
37852;BME280;23691;52.486;4.650;2023-10-08T22:41:09;102058.59;;;19.08;72.56
37852;BME280;23691;52.486;4.650;2023-10-08T22:43:37;102061.09;;;19.09;72.66
37852;BME280;23691;52.486;4.650;2023-10-08T22:46:05;102053.59;;;19.12;72.65
37852;BME280;23691;52.486;4.650;2023-10-08T22:48:32;102045.06;;;19.15;72.89
37852;BME280;23691;52.486;4.650;2023-10-08T22:51:04;102033.00;;;19.17;72.61
37852;BME280;23691;52.486;4.650;2023-10-08T22:53:38;102033.66;;;19.19;72.63
37852;BME280;23691;52.486;4.650;2023-10-08T22:56:03;102018.03;;;19.21;72.86
37852;BME280;23691;52.486;4.650;2023-10-08T22:58:32;102013.66;;;19.20;73.17
37852;BME280;23691;52.486;4.650;2023-10-08T23:01:11;102009.13;;;19.27;73.08
37852;BME280;23691;52.486;4.650;2023-10-08T23:03:37;102011.44;;;19.30;73.08
37852;BME280;23691;52.486;4.650;2023-10-08T23:06:02;102011.25;;;19.32;73.26
37852;BME280;23691;52.486;4.650;2023-10-08T23:08:32;102015.25;;;19.36;73.28
37852;BME280;23691;52.486;4.650;2023-10-08T23:10:58;102012.13;;;19.39;73.59
37852;BME280;23691;52.486;4.650;2023-10-08T23:13:23;102003.81;;;19.41;73.63
37852;BME280;23691;52.486;4.650;2023-10-08T23:15:49;102001.75;;;19.43;73.69
37852;BME280;23691;52.486;4.650;2023-10-08T23:18:19;102009.88;;;19.43;73.55
37852;BME280;23691;52.486;4.650;2023-10-08T23:20:49;102003.22;;;19.45;73.51
37852;BME280;23691;52.486;4.650;2023-10-08T23:23:15;102004.53;;;19.49;73.60
37852;BME280;23691;52.486;4.650;2023-10-08T23:25:43;102004.31;;;19.51;73.78
37852;BME280;23691;52.486;4.650;2023-10-08T23:28:09;102003.91;;;19.54;73.56
37852;BME280;23691;52.486;4.650;2023-10-08T23:30:34;101999.13;;;19.56;73.57
37852;BME280;23691;52.486;4.650;2023-10-08T23:33:04;101995.19;;;19.59;73.46
37852;BME280;23691;52.486;4.650;2023-10-08T23:35:31;102004.19;;;19.59;73.65
37852;BME280;23691;52.486;4.650;2023-10-08T23:37:56;101994.50;;;19.50;74.18
37852;BME280;23691;52.486;4.650;2023-10-08T23:40:42;101993.47;;;19.51;74.16
37852;BME280;23691;52.486;4.650;2023-10-08T23:43:10;101995.16;;;19.52;74.26
37852;BME280;23691;52.486;4.650;2023-10-08T23:45:41;102000.38;;;19.53;74.07
37852;BME280;23691;52.486;4.650;2023-10-08T23:48:06;101993.53;;;19.58;74.05
37852;BME280;23691;52.486;4.650;2023-10-08T23:50:47;101986.44;;;19.57;74.44
37852;BME280;23691;52.486;4.650;2023-10-08T23:53:13;101996.66;;;19.61;74.59
37852;BME280;23691;52.486;4.650;2023-10-08T23:55:49;101996.31;;;19.64;74.59
37852;BME280;23691;52.486;4.650;2023-10-08T23:58:33;101997.59;;;19.68;74.78
